Latest Coastal Weather Observations for Rundle Island

IDQ60701

Issued at 4:21 am EST Sunday 26 April 2015 (issued every 10 minutes, with the page automatically refreshed every 10 minutes)

About coastal observations | Map of coastal stations | Coastal observations for QLD | Marine services | Other Formats
Station Details ID: 039322 Name: RUNDLE ISLAND Lat: -23.53 Lon: 151.28 Height: 19.8 m
Data from the previous 72 hours. | See also: Recent months at Rundle Island
Date/Time
EST
Temp

°C
Wind Pressure Rain
since 9am
mm
Weather Cloud Vis
km
Sea
Height
m
Swell
Dir
 
Speed
knots
Gust
knots
hPa Trend Height
m
Period
s
Dir
26/04:00am 21.4 SW 8 9 1011.1 - - - - - - - - -
26/03:30am 21.6 WSW 8 11 1010.8 - - - - - - - - -
26/03:00am 21.8 WSW 7 9 1010.6 - - - - - - - - -
26/02:30am 23.2 WNW 11 15 1010.5 - - - - - - - - -
26/02:00am 24.3 NW 15 17 1010.2 - - - - - - - - -
26/01:30am 23.6 NW 11 13 1010.5 - - - - - - - - -
26/01:00am 23.9 NW 12 15 1010.5 - - - - - - - - -
26/12:30am 24.1 NW 11 12 1010.6 - - - - - - - - -
26/12:00am 24.5 NW 12 14 1010.7 - - - - - - - - -
 
Date/Time
EST
Temp

°C
Wind Pressure Rain
since 9am
mm
Weather Cloud Vis
km
Sea
Height
m
Swell
Dir
 
Speed
knots
Gust
knots
hPa Trend Height
m
Period
s
Dir
25/11:30pm 24.4 NW 8 10 1010.9 - - - - - - - - -
25/11:00pm 24.9 NNW 9 10 1011.0 - - - - - - - - -
25/10:30pm 24.9 NNW 6 8 1011.2 - - - - - - - - -
25/10:00pm 25.0 NW 10 12 1011.3 - - - - - - - - -
25/09:30pm 25.0 NNW 9 11 1011.1 - - - - - - - - -
25/09:00pm 25.1 NNW 10 11 1011.2 - - - - - - - - -
25/08:30pm 25.1 NNW 10 12 1011.3 - - - - - - - - -
25/08:00pm 25.1 NNW 11 12 1010.9 - - - - - - - - -
25/07:30pm 25.1 N 10 12 1010.6 - - - - - - - - -
25/07:00pm 25.1 N 10 11 1010.1 - - - - - - - - -
25/06:30pm 25.1 N 10 11 1009.6 - - - - - - - - -
25/06:00pm 25.2 N 10 11 1009.2 - - - - - - - - -
25/05:30pm 25.1 N 10 11 1008.9 - - - - - - - - -
25/05:00pm 25.3 N 10 12 1008.7 - - - - - - - - -
25/04:30pm 25.3 N 9 9 1008.5 - - - - - - - - -
25/04:00pm 25.4 N 8 9 1008.6 - - - - - - - - -
25/03:30pm 25.4 NNW 8 9 1008.5 - - - - - - - - -
25/03:00pm 25.6 NNW 8 9 1008.6 - - - - - - - - -
25/02:30pm 25.2 NNW 8 9 1008.7 - - - - - - - - -
25/02:00pm 25.2 NNW 8 9 1008.9 - - - - - - - - -
25/01:30pm 25.1 NNW 9 9 1009.1 - - - - - - - - -
25/01:00pm 25.1 NNW 8 9 1009.6 - - - - - - - - -
25/12:30pm 24.9 NNW 9 9 1009.8 - - - - - - - - -
25/12:00pm 24.8 NNW 10 11 1010.2 - - - - - - - - -
25/11:30am 24.8 NNW 9 10 1010.5 - - - - - - - - -
25/11:00am 24.6 NNW 9 10 1011.1 - - - - - - - - -
25/10:30am 24.3 NNW 7 8 1011.4 - - - - - - - - -
25/10:00am 24.7 WNW 5 7 1011.6 - - - - - - - - -
25/09:30am 23.7 W 3 5 1011.8 - - - - - - - - -
25/09:00am 23.1 WSW 3 4 1011.9 - - - - - - - - -
25/08:30am 22.0 WSW 4 5 1011.9 - - - - - - - - -
25/08:00am 21.7 WSW 6 7 1011.6 - - - - - - - - -
25/07:30am 21.6 WSW 6 7 1011.3 - - - - - - - - -
25/07:00am 21.6 WSW 5 6 1011.1 - - - - - - - - -
25/06:30am 21.3 WSW 6 7 1010.7 - - - - - - - - -
25/06:00am 21.4 WSW 6 6 1010.4 - - - - - - - - -
25/05:30am 21.5 WSW 6 7 1010.3 - - - - - - - - -
25/05:00am 21.7 WSW 6 7 1010.2 - - - - - - - - -
25/04:30am 21.8 WSW 5 6 1009.9 - - - - - - - - -
25/04:00am 21.7 WSW 4 5 1009.8 - - - - - - - - -
25/03:30am 22.2 W 5 6 1009.8 - - - - - - - - -
25/03:00am 22.0 W 5 6 1010.0 - - - - - - - - -
25/02:30am 21.7 WSW 5 6 1010.1 - - - - - - - - -
25/02:00am 22.1 WSW 5 6 1010.2 - - - - - - - - -
25/01:30am 22.3 WSW 5 6 1010.2 - - - - - - - - -
25/01:00am 23.3 W 4 6 1010.4 - - - - - - - - -
25/12:30am 24.3 NNW 7 8 1010.5 - - - - - - - - -
25/12:00am 24.3 NNW 8 9 1010.5 - - - - - - - - -
 
Date/Time
EST
Temp

°C
Wind Pressure Rain
since 9am
mm
Weather Cloud Vis
km
Sea
Height
m
Swell
Dir
 
Speed
knots
Gust
knots
hPa Trend Height
m
Period
s
Dir
24/11:30pm 24.3 NNW 9 10 1010.4 - - - - - - - - -
24/11:00pm 24.4 NNW 8 10 1010.4 - - - - - - - - -
24/10:30pm 24.4 NNW 8 9 1010.5 - - - - - - - - -
24/10:00pm 24.4 NNW 8 10 1010.7 - - - - - - - - -
24/09:30pm 24.5 NNW 8 9 1010.8 - - - - - - - - -
24/09:00pm 24.6 N 8 9 1010.7 - - - - - - - - -
24/08:30pm 24.6 N 8 9 1010.5 - - - - - - - - -
24/08:00pm 24.6 N 8 8 1010.3 - - - - - - - - -
24/07:30pm 24.6 N 7 8 1010.0 - - - - - - - - -
24/07:00pm 24.4 NNE 7 8 1009.5 - - - - - - - - -
24/06:30pm 24.5 NNE 7 8 1009.1 - - - - - - - - -
24/06:00pm 24.4 NNE 8 10 1008.8 - - - - - - - - -
24/05:30pm 24.4 NE 9 9 1008.5 - - - - - - - - -
24/05:00pm 24.4 NNE 9 10 1008.2 - - - - - - - - -
24/04:30pm 24.6 NNE 9 10 1008.1 - - - - - - - - -
24/04:00pm 25.0 NNE 8 9 1008.0 - - - - - - - - -
24/03:30pm 24.8 NNE 9 10 1007.9 - - - - - - - - -
24/03:00pm 24.4 NNE 9 11 1008.1 - - - - - - - - -
24/02:30pm 24.4 N 8 9 1008.2 - - - - - - - - -
24/02:00pm 24.5 N 7 9 1008.5 - - - - - - - - -
24/01:30pm 24.1 N 6 7 1008.7 - - - - - - - - -
24/01:00pm 25.5 NNE 5 6 1009.1 - - - - - - - - -
24/12:30pm 24.2 NNE 4 5 1009.8 - - - - - - - - -
24/12:00pm 24.1 NNE 3 4 1010.1 - - - - - - - - -
24/11:30am 25.4 NE 2 4 1010.5 - - - - - - - - -
24/11:00am 25.6 CALM 0 0 1011.0 - - - - - - - - -
24/10:30am 24.9 CALM 0 2 1011.4 - - - - - - - - -
24/10:00am 22.9 W 3 5 1011.6 - - - - - - - - -
24/09:30am 22.8 WSW 4 7 1011.7 - - - - - - - - -
24/09:00am 21.5 WSW 7 8 1011.9 - - - - - - - - -
24/08:30am 21.0 WSW 7 9 1012.0 - - - - - - - - -
24/08:00am 20.8 SW 6 8 1011.9 - - - - - - - - -
24/07:30am 20.6 SW 6 8 1011.1 - - - - - - - - -
24/07:00am 20.3 SW 5 6 1011.0 - - - - - - - - -
24/06:30am 19.9 SW 5 7 1010.6 - - - - - - - - -
24/06:00am 20.1 SW 6 7 1010.5 - - - - - - - - -
24/05:30am 20.3 WSW 6 7 1010.3 - - - - - - - - -
24/05:00am 20.1 WSW 6 7 1010.1 - - - - - - - - -
24/04:30am 20.3 WSW 8 9 1010.0 - - - - - - - - -
24/04:00am 20.6 SW 7 8 1009.8 - - - - - - - - -
24/03:30am 20.5 WSW 5 6 1010.0 - - - - - - - - -
24/03:00am 20.6 WSW 8 9 1010.2 - - - - - - - - -
24/02:30am 20.8 WSW 7 8 1010.4 - - - - - - - - -
24/02:00am 21.1 WSW 6 7 1010.4 - - - - - - - - -
24/01:30am 22.1 WNW 5 6 1010.7 - - - - - - - - -
24/01:00am 22.4 WNW 3 4 1010.8 - - - - - - - - -
24/12:30am 22.5 WNW 2 4 1011.1 - - - - - - - - -
24/12:00am 22.5 CALM 0 1 1011.3 - - - - - - - - -
 
Date/Time
EST
Temp

°C
Wind Pressure Rain
since 9am
mm
Weather Cloud Vis
km
Sea
Height
m
Swell
Dir
 
Speed
knots
Gust
knots
hPa Trend Height
m
Period
s
Dir
23/11:30pm 22.4 NW 1 3 1011.4 - - - - - - - - -
23/11:00pm 22.5 NNE 3 4 1011.5 - - - - - - - - -
23/10:30pm 22.6 N 3 3 1011.6 - - - - - - - - -
23/10:00pm 22.4 NE 3 4 1011.6 - - - - - - - - -
23/09:30pm 22.4 NNE 4 6 1011.5 - - - - - - - - -
23/09:00pm 22.6 NNE 4 6 1011.5 - - - - - - - - -
23/08:30pm 22.4 ENE 5 6 1011.3 - - - - - - - - -
23/08:00pm 22.4 NE 6 7 1011.1 - - - - - - - - -
23/07:30pm 22.4 NE 6 8 1011.0 - - - - - - - - -
23/07:00pm 22.3 NE 6 8 1010.6 - - - - - - - - -
23/06:30pm 22.2 NE 7 9 1010.2 - - - - - - - - -
23/06:00pm 22.1 NE 7 9 1009.8 - - - - - - - - -
23/05:30pm 22.2 NE 6 7 1009.6 - - - - - - - - -
23/05:00pm 23.0 NE 5 7 1009.2 - - - - - - - - -
23/04:30pm 23.2 NNE 5 8 1009.1 - - - - - - - - -
23/04:00pm 23.0 NNE 5 7 1009.1 - - - - - - - - -
23/03:30pm 22.7 N 4 5 1009.4 - - - - - - - - -
23/03:00pm 24.0 NE 4 5 1009.5 - - - - - - - - -
23/02:30pm 23.4 ENE 4 6 1009.5 - - - - - - - - -
23/02:00pm 22.2 E 6 8 1009.8 - - - - - - - - -
23/01:30pm 22.4 E 6 8 1010.3 - - - - - - - - -
23/01:00pm 22.0 ESE 8 10 1011.0 - - - - - - - - -
23/12:30pm 22.5 ESE 8 9 1011.5 - - - - - - - - -
23/12:00pm 21.4 SE 7 9 1012.2 - - - - - - - - -
23/11:30am 21.1 SE 6 8 1012.8 - - - - - - - - -
23/11:00am 21.3 SSE 6 8 1013.2 - - - - - - - - -
23/10:30am 21.2 S 7 9 1013.5 - - - - - - - - -
23/10:00am 20.7 S 9 11 1013.9 - - - - - - - - -
23/09:30am 20.5 S 9 12 1014.0 - - - - - - - - -
23/09:00am 20.2 S 10 11 1014.1 - - - - - - - - -
23/08:30am 19.6 SSW 9 12 1013.9 - - - - - - - - -
23/08:00am 19.6 SSW 10 12 1013.8 - - - - - - - - -
23/07:30am 19.3 SSW 10 12 1013.6 - - - - - - - - -
23/07:00am 18.9 SSW 11 13 1013.2 - - - - - - - - -
23/06:30am 18.7 SSW 11 14 1012.9 - - - - - - - - -

Other Formats:

Comma delimited format used in spreadsheet applications
http://www.bom.gov.au/fwo/IDQ60701/IDQ60701.94378.axf

JavaScript Object Notation format (JSON) in row-major order
http://www.bom.gov.au/fwo/IDQ60701/IDQ60701.94378.json